地図

経路データ

SID SEASON NUMBER BASIN SUBBASIN NAME ISO_TIME NATURE LAT LON WMO_WIND WMO_PRES WMO_AGENCY TRACK_TYPE DIST2LAND LANDFALL IFLAG USA_AGENCY USA_ATCF_ID USA_LAT USA_LON USA_RECORD USA_STATUS USA_WIND USA_PRES USA_SSHS USA_R34_NE USA_R34_SE USA_R34_SW USA_R34_NW USA_R50_NE USA_R50_SE USA_R50_SW USA_R50_NW USA_R64_NE USA_R64_SE USA_R64_SW USA_R64_NW USA_POCI USA_ROCI USA_RMW USA_EYE TOKYO_LAT TOKYO_LON TOKYO_GRADE TOKYO_WIND TOKYO_PRES TOKYO_R50_DIR TOKYO_R50_LONG TOKYO_R50_SHORT TOKYO_R30_DIR TOKYO_R30_LONG TOKYO_R30_SHORT TOKYO_LAND CMA_LAT CMA_LON CMA_CAT CMA_WIND CMA_PRES HKO_LAT HKO_LON HKO_CAT HKO_WIND HKO_PRES NEWDELHI_LAT NEWDELHI_LON NEWDELHI_GRADE NEWDELHI_WIND NEWDELHI_PRES NEWDELHI_CI NEWDELHI_DP NEWDELHI_POCI REUNION_LAT REUNION_LON REUNION_TYPE REUNION_WIND REUNION_PRES REUNION_TNUM REUNION_CI REUNION_RMW REUNION_R34_NE REUNION_R34_SE REUNION_R34_SW REUNION_R34_NW REUNION_R50_NE REUNION_R50_SE REUNION_R50_SW REUNION_R50_NW REUNION_R64_NE REUNION_R64_SE REUNION_R64_SW REUNION_R64_NW BOM_LAT BOM_LON BOM_TYPE BOM_WIND BOM_PRES BOM_TNUM BOM_CI BOM_RMW BOM_R34_NE BOM_R34_SE BOM_R34_SW BOM_R34_NW BOM_R50_NE BOM_R50_SE BOM_R50_SW BOM_R50_NW BOM_R64_NE BOM_R64_SE BOM_R64_SW BOM_R64_NW BOM_ROCI BOM_POCI BOM_EYE BOM_POS_METHOD BOM_PRES_METHOD NADI_LAT NADI_LON NADI_CAT NADI_WIND NADI_PRES WELLINGTON_LAT WELLINGTON_LON WELLINGTON_WIND WELLINGTON_PRES DS824_LAT DS824_LON DS824_STAGE DS824_WIND DS824_PRES TD9636_LAT TD9636_LON TD9636_STAGE TD9636_WIND TD9636_PRES TD9635_LAT TD9635_LON TD9635_WIND TD9635_PRES TD9635_ROCI NEUMANN_LAT NEUMANN_LON NEUMANN_CLASS NEUMANN_WIND NEUMANN_PRES MLC_LAT MLC_LON MLC_CLASS MLC_WIND MLC_PRES USA_GUST BOM_GUST BOM_GUST_PER REUNION_GUST REUNION_GUST_PER USA_SEAHGT USA_SEARAD_NE USA_SEARAD_SE USA_SEARAD_SW USA_SEARAD_NW STORM_SPEED STORM_DIR
1969250N20119 1969 72 WP MM NOT_NAMED 1969-09-07 06:00:00 TS 19.7000 119.200 main 206 196 O________O____ jtwc_wp WP201969 19.7000 119.200 TD -1 19.7000 119.200 TC 11 210
1969250N20119 1969 72 WP MM NOT_NAMED 1969-09-07 09:00:00 TS 19.2376 118.919 main 200 187 P________P____ WP201969 19.2376 118.919 TD -1 19.2376 118.919 TC 12 198
1969250N20119 1969 72 WP MM NOT_NAMED 1969-09-07 12:00:00 TS 18.5750 118.825 main 187 158 O_O______OO___ jtwc_wp WP201969 18.8000 118.800 TD -1 17.0000 119.000 1 29 999 18.8000 118.800 TC 18.8000 118.800 1 10 175
1969250N20119 1969 72 WP MM NOT_NAMED 1969-09-07 15:00:00 TS 18.2617 119.012 main 158 119 P_P______PP___ WP201969 18.4250 118.940 TD -1 17.2726 119.227 1 29 998 18.4250 118.940 TC 18.5973 119.083 1 6 137
1969250N20119 1969 72 WP MM NOT_NAMED 1969-09-07 18:00:00 TS 18.1197 119.271 main 119 106 O_O______OP___ jtwc_wp WP201969 18.2000 119.200 TD -1 17.6000 119.400 1 29 998 18.2000 119.200 TC 18.4254 119.333 1 4 103
1969250N20119 1969 72 WP MM NOT_NAMED 1969-09-07 21:00:00 TS 18.1646 119.471 main 106 97 P_P______PP___ WP201969 18.1675 119.445 TD -1 18.0075 119.480 1 33 997 18.1675 119.445 TC 18.3158 119.516 1 4 55
1969250N20119 1969 72 WP MM NOT_NAMED 1969-09-08 00:00:00 TS 18.3250 119.575 main 97 97 O_O______OO___ jtwc_wp WP201969 18.3000 119.600 TD -1 18.4000 119.500 2 38 996 18.3000 119.600 TC 18.3000 119.600 1 4 10
1969250N20119 1969 72 WP MM NOT_NAMED 1969-09-08 03:00:00 TS 18.5319 119.538 main 114 114 P_P______PP___ WP201969 18.5275 119.538 TD -1 18.6725 119.508 2 38 995 18.5275 119.538 TC 18.3999 119.568 1 5 342
1969250N20119 1969 72 WP MM NOT_NAMED 1969-09-08 06:00:00 TS 18.7765 119.421 main 134 134 O_OO_____OP___ jtwc_wp WP201969 18.8000 119.400 TD -1 18.9000 119.500 2 38 995 18.8000 119.100 TD 25 1000 18.8000 119.400 TC 18.6000 119.466 1 5 337
1969250N20119 1969 72 WP MM NOT_NAMED 1969-09-08 09:00:00 TS 18.9986 119.329 main 152 152 P_PP_____PP___ WP201969 18.9775 119.313 TD -1 19.1275 119.485 2 38 994 19.0725 119.028 TD 25 1000 18.9775 119.313 TC 18.8750 119.356 1 5 346
1969250N20119 1969 72 WP MM NOT_NAMED 1969-09-08 12:00:00 TS 19.2579 119.295 main 169 169 O_OO_____OO___ jtwc_wp WP201969 19.2000 119.300 TD -1 19.4000 119.500 2 38 993 19.3000 119.000 TD 25 1000 19.2000 119.300 TC 19.2000 119.300 1 6 5
1969250N20119 1969 72 WP MM NOT_NAMED 1969-09-08 15:00:00 TS 19.5875 119.376 main 184 184 P_PP_____PP___ WP201969 19.5775 119.420 TD -1 19.7850 119.577 2 43 992 19.4575 119.055 TD 27 997 19.5775 119.420 TC 19.5402 119.409 1 7 18
1969250N20119 1969 72 WP MM NOT_NAMED 1969-09-08 18:00:00 TS 19.9441 119.535 main 199 199 O_OO_____OP___ jtwc_wp WP201969 20.0000 119.600 TD -1 20.2000 119.700 3 48 991 19.6000 119.200 TD 30 995 20.0000 119.600 TC 19.9203 119.576 1 7 26
1969250N20119 1969 72 WP MM NOT_NAMED 1969-09-08 21:00:00 TS 20.2581 119.717 main 206 167 P_PP_____PP___ WP201969 20.3500 119.765 TD -1 20.5650 119.857 3 48 990 19.7101 119.443 TD 30 995 20.3500 119.765 TC 20.3152 119.756 1 7 26
1969250N20119 1969 72 WP MM NOT_NAMED 1969-09-09 00:00:00 TS 20.6000 119.880 main 167 123 O_OO_____OO___ jtwc_wp WP201969 20.7000 119.900 TD -1 20.9000 120.000 3 48 990 20.0000 119.700 TD 30 995 20.7000 119.900 TC 20.7000 119.900 1 8 17
1969250N20119 1969 72 WP MM NOT_NAMED 1969-09-09 03:00:00 TS 21.0449 119.975 main 123 85 P_PP_____PP___ WP201969 21.1150 119.980 TD -1 21.2150 120.073 3 48 990 20.7200 119.895 TD 30 995 21.1150 119.980 TC 21.0596 119.948 1 9 8
1969250N20119 1969 72 WP MM NOT_NAMED 1969-09-09 06:00:00 TS 21.4805 120.011 main 85 73 O_OO_____OP___ jtwc_wp WP201969 21.5000 120.000 TD -1 21.5000 120.100 3 48 990 21.5000 120.000 TD 30 995 21.5000 120.000 TC 21.4024 119.953 1 8 0
1969250N20119 1969 72 WP MM NOT_NAMED 1969-09-09 09:00:00 TS 21.8008 119.989 main 73 63 P_PP_____PP___ WP201969 21.7800 119.965 TD -1 21.7575 120.100 3 48 990 21.9675 119.980 TD 30 995 21.7800 119.965 TC 21.7190 119.932 1 6 353
1969250N20119 1969 72 WP MM NOT_NAMED 1969-09-09 12:00:00 TS 22.0600 119.940 main 60 46 O_OO_____OO___ jtwc_wp WP201969 22.0000 119.900 TD -1 22.0000 120.100 3 48 991 22.3000 119.900 TD 30 995 22.0000 119.900 TC 22.0000 119.900 1 5 351
1969250N20119 1969 72 WP MM NOT_NAMED 1969-09-09 15:00:00 TS 22.3130 119.898 main 46 41 P_PP_____PP___ WP201969 22.2075 119.843 TD -1 22.2575 120.142 3 43 991 22.6525 119.835 TD 27 997 22.2075 119.843 TC 22.2398 119.830 1 5 352
1969250N20119 1969 72 WP MM NOT_NAMED 1969-09-09 18:00:00 TS 22.5289 119.872 main 41 32 O_OO_____OP___ jtwc_wp WP201969 22.4000 119.800 TD -1 22.5000 120.200 2 38 992 22.9000 119.800 TD 25 1000 22.4000 119.800 TC 22.4447 119.761 1 4 353
1969250N20119 1969 72 WP MM NOT_NAMED 1969-09-09 21:00:00 TS 22.6879 119.851 main 32 30 P_PP_____PP___ WP201969 22.5924 119.755 TD -1 22.6699 120.213 2 38 992 22.9574 119.798 TD 25 1000 22.5924 119.755 TC 22.6272 119.736 1 3 7
1969250N20119 1969 72 WP MM NOT_NAMED 1969-09-10 00:00:00 TS 22.8600 119.920 main 30 0 O_OO_____OO___ jtwc_wp WP201969 22.8000 119.800 TD -1 22.9000 120.300 2 38 993 23.0000 119.900 TD 25 1000 22.8000 119.800 TC 22.8000 119.800 1 5 29
1969250N20119 1969 72 WP MM NOT_NAMED 1969-09-10 03:00:00 TS 23.1534 120.130 main 0 0 P_PP_____PP___ WP201969 23.0650 119.997 TD -1 23.3875 120.547 2 38 993 23.2347 120.110 TD 25 1000 23.0650 119.997 TC 23.0149 119.998 1 8 41
1969250N20119 1969 72 WP MM NOT_NAMED 1969-09-10 06:00:00 TS 23.4235 120.457 main 0 0 O_OO_____OP___ jtwc_wp WP201969 23.3000 120.300 TD -1 23.8000 120.900 2 38 994 23.5000 120.500 TD 25 1000 23.3000 120.300 TC 23.2178 120.286 1 8 59
1969250N20119 1969 72 WP MM NOT_NAMED 1969-09-10 09:00:00 TS 23.5626 120.879 main 0 0 P_PP_____PP___ WP201969 23.4600 120.635 TD -1 23.8252 121.316 2 33 994 23.6810 121.180 TD 25 1000 23.4600 120.635 TC 23.3867 120.632 1 8 77
1969250N20119 1969 72 WP MM NOT_NAMED 1969-09-10 12:00:00 TS 23.6000 121.300 main 0 0 O_OO_____OO___ jtwc_wp WP201969 23.5000 121.000 TD -1 23.7000 121.700 1 29 994 23.8000 121.800 TD 25 1000 23.5000 121.000 TC 23.5000 121.000 1 7 91
1969250N20119 1969 72 WP MM NOT_NAMED 1969-09-10 15:00:00 TS 23.5536 121.604 main 15 15 P_PP_____PP___ WP201969 23.3499 121.351 TD -1 23.6573 121.937 1 29 994 23.8495 121.983 TD 25 1000 23.3499 121.351 TC 23.5615 121.401 1 5 104
1969250N20119 1969 72 WP MM NOT_NAMED 1969-09-10 18:00:00 TS 23.4712 121.854 main 46 46 O_OO_____OP___ jtwc_wp WP201969 23.2000 121.700 TD -1 23.6000 122.100 1 29 994 23.9000 122.000 TD 25 1000 23.2000 121.700 TC 23.5633 121.806 1 5 99
1969250N20119 1969 72 WP MM NOT_NAMED 1969-09-10 21:00:00 TS 23.4764 122.149 main 65 65 P_PP_____PP___ WP201969 23.3001 122.102 TD -1 23.5225 122.273 1 29 994 24.0252 122.072 TD 25 1000 23.3001 122.102 TC 23.5084 122.158 1 5 92
1969250N20119 1969 72 WP MM NOT_NAMED 1969-09-11 00:00:00 TS 23.4500 122.387 main 94 94 O_OO_____OO___ jtwc_wp WP201969 23.4000 122.400 TD -1 23.4000 122.400 1 29 994 24.2000 122.200 TD 25 1000 23.4000 122.400 TC 23.4000 122.400 1 4 125
1969250N20119 1969 72 WP MM NOT_NAMED 1969-09-11 03:00:00 TS 23.2641 122.481 main 111 111 P_P______PP___ WP201969 23.3024 122.468 TD -1 23.2225 122.488 1 29 994 TD 23.3124 122.470 TC 23.2434 122.494 1 4 173
1969250N20119 1969 72 WP MM NOT_NAMED 1969-09-11 06:00:00 TS 23.0499 122.454 main 113 102 O_O______OP___ jtwc_wp WP201969 23.1000 122.400 TD -1 23.0000 122.500 1 29 994 23.1000 122.400 TC 23.0497 122.464 1 5 191
1969250N20119 1969 72 WP MM NOT_NAMED 1969-09-11 09:00:00 TS 22.7972 122.375 main 107 102 P_P_______P___ WP201969 22.8576 122.302 TD -1 22.7500 122.422 1 29 995 TC 22.8311 122.352 1 5 198
1969250N20119 1969 72 WP MM NOT_NAMED 1969-09-11 12:00:00 TS 22.5333 122.267 main 114 105 O_O_______O___ jtwc_wp WP201969 22.6000 122.200 TD -1 22.5000 122.300 1 29 996 22.6000 122.200 1 5 197
1969250N20119 1969 72 WP MM NOT_NAMED 1969-09-11 15:00:00 TS 22.3000 122.215 main 121 121 __P___________ WP201969 TD -1 22.3000 122.215 1 29 996 1 5 200
1969250N20119 1969 72 WP MM NOT_NAMED 1969-09-11 18:00:00 TS 22.1000 122.100 main 123 103 __O___________ 22.1000 122.100 1 29 996 1 5 211
1969250N20119 1969 72 WP MM NOT_NAMED 1969-09-11 21:00:00 TS 21.8650 121.930 main 103 89 __P___________ 21.8650 121.930 1 29 997 1 6 217
1969250N20119 1969 72 WP MM NOT_NAMED 1969-09-12 00:00:00 TS 21.6000 121.700 main 89 83 __O___________ 21.6000 121.700 1 29 998 7 221
1969250N20119 1969 72 WP MM NOT_NAMED 1969-09-12 03:00:00 TS 21.3075 121.415 main 84 84 __P___________ 21.3075 121.415 1 29 998 8 223
1969250N20119 1969 72 WP MM NOT_NAMED 1969-09-12 06:00:00 TS 21.0000 121.100 main 102 102 __O___________ 21.0000 121.100 1 29 998 8 223
1969250N20119 1969 72 WP MM NOT_NAMED 1969-09-12 09:00:00 TS 20.6925 120.793 main 134 134 __P___________ 20.6925 120.793 1 29 998 8 223
1969250N20119 1969 72 WP MM NOT_NAMED 1969-09-12 12:00:00 TS 20.4000 120.500 main 169 169 __O___________ 20.4000 120.500 1 29 998 8 223
1969250N20119 1969 72 WP MM NOT_NAMED 1969-09-12 15:00:00 TS 20.1275 120.235 main 179 167 __P___________ 20.1275 120.235 1 29 998 7 223
1969250N20119 1969 72 WP MM NOT_NAMED 1969-09-12 18:00:00 TS 19.9000 120.000 main 167 161 __O___________ 19.9000 120.000 1 29 998 6 227
1969250N20119 1969 72 WP MM NOT_NAMED 1969-09-12 21:00:00 TS 19.7325 119.792 main 161 160 __P___________ 19.7325 119.792 1 29 998 5 231
1969250N20119 1969 72 WP MM NOT_NAMED 1969-09-13 00:00:00 TS 19.6000 119.600 main 168 __O___________ 19.6000 119.600 1 29 998 5 234

デジタル台風データ・検索

IBTrACS Databaseについて

本データベースは、米国NOAAが公開する1842年以降の世界の熱帯低気圧のベストトラックデータアーカイブInternational Best Track Archive for Climate Stewardship (IBTrACS)を、ウェブで閲覧しやすい形式に変換したものです。

最終更新日:2021-10-25